createdAt,value
2022-10-15T00:00:36.656Z,15.16
2022-10-15T00:01:36.779Z,15.18
2022-10-15T00:02:36.729Z,15.10
2022-10-15T00:03:36.738Z,15.07
2022-10-15T00:04:36.768Z,15.13
2022-10-15T00:05:36.795Z,15.13
2022-10-15T00:06:36.824Z,15.15
2022-10-15T00:07:36.852Z,15.07
2022-10-15T00:08:36.880Z,15.16
2022-10-15T00:09:36.907Z,15.13
2022-10-15T00:10:36.936Z,15.10
2022-10-15T00:11:36.963Z,15.10
2022-10-15T00:12:36.992Z,15.08
2022-10-15T00:13:37.019Z,15.05
2022-10-15T00:14:37.055Z,15.08
2022-10-15T00:15:37.075Z,15.16
2022-10-15T00:16:37.106Z,15.13
2022-10-15T00:17:37.131Z,15.08
2022-10-15T00:18:37.181Z,15.12
2022-10-15T00:19:37.188Z,15.10
2022-10-15T00:20:37.217Z,15.07
2022-10-15T00:21:37.244Z,15.08
2022-10-15T00:22:37.274Z,15.05
2022-10-15T00:23:37.300Z,15.08
2022-10-15T00:24:37.332Z,15.12
2022-10-15T00:25:37.361Z,15.01
2022-10-15T00:26:37.386Z,15.05
2022-10-15T00:27:37.413Z,15.07
2022-10-15T00:28:37.515Z,15.02
2022-10-15T00:29:37.468Z,15.01
2022-10-15T00:30:37.499Z,15.12
2022-10-15T00:31:37.526Z,15.05
2022-10-15T00:32:37.562Z,15.07
2022-10-15T00:33:37.581Z,14.98
2022-10-15T00:34:37.628Z,15.04
2022-10-15T00:35:37.639Z,14.97
2022-10-15T00:36:37.667Z,15.01
2022-10-15T00:37:37.693Z,15.07
2022-10-15T00:38:37.723Z,14.95
2022-10-15T00:39:37.752Z,14.95
2022-10-15T00:40:37.780Z,15.02
2022-10-15T00:41:37.808Z,14.97
2022-10-15T00:42:37.836Z,15.00
2022-10-15T00:43:37.864Z,15.02
2022-10-15T00:44:37.891Z,14.97
2022-10-15T00:45:37.917Z,14.94
2022-10-15T00:46:37.947Z,15.01
2022-10-15T00:47:37.974Z,15.01
2022-10-15T00:48:38.004Z,15.00
2022-10-15T00:49:38.029Z,14.90
2022-10-15T00:50:38.078Z,14.83
2022-10-15T00:51:38.087Z,14.90
2022-10-15T00:52:38.115Z,14.87
2022-10-15T00:53:38.141Z,14.95
2022-10-15T00:54:38.171Z,14.93
2022-10-15T00:55:38.199Z,14.82
2022-10-15T00:56:38.228Z,14.89
2022-10-15T00:57:38.263Z,14.87
2022-10-15T00:58:38.285Z,14.85
2022-10-15T00:59:38.309Z,14.87
2022-10-15T01:00:38.337Z,14.83
2022-10-15T01:01:38.380Z,14.77
2022-10-15T01:02:38.396Z,14.74
2022-10-15T01:03:38.423Z,14.63
2022-10-15T01:04:38.450Z,14.66
2022-10-15T01:05:38.482Z,14.69
2022-10-15T01:06:38.624Z,14.63
2022-10-15T01:07:38.534Z,14.60
2022-10-15T01:08:38.565Z,14.63
2022-10-15T01:09:38.592Z,14.63
2022-10-15T01:10:38.619Z,14.71
2022-10-15T01:11:38.647Z,14.67
2022-10-15T01:12:38.674Z,14.60
2022-10-15T01:13:38.701Z,14.63
2022-10-15T01:14:38.732Z,14.63
2022-10-15T01:15:38.760Z,14.59
2022-10-15T01:16:38.787Z,14.52
2022-10-15T01:17:38.812Z,14.53
2022-10-15T01:18:38.843Z,14.53
2022-10-15T01:19:38.867Z,14.48
2022-10-15T01:20:38.896Z,14.48
2022-10-15T01:21:38.922Z,14.39
2022-10-15T01:22:38.970Z,14.52
2022-10-15T01:23:38.981Z,14.44
2022-10-15T01:24:39.009Z,14.41
2022-10-15T01:25:39.034Z,14.46
2022-10-15T01:26:39.063Z,14.39
2022-10-15T01:27:39.090Z,14.42
2022-10-15T01:28:39.191Z,14.44
2022-10-15T01:29:39.146Z,14.44
2022-10-15T01:30:39.175Z,14.33
2022-10-15T01:31:39.201Z,14.28
2022-10-15T01:32:39.231Z,14.30
2022-10-15T01:33:39.257Z,14.38
2022-10-15T01:34:39.293Z,14.31
2022-10-15T01:35:39.314Z,14.33
2022-10-15T01:36:39.346Z,14.28
2022-10-15T01:37:39.400Z,14.30
2022-10-15T01:38:39.463Z,14.24
2022-10-15T01:39:39.424Z,14.24
2022-10-15T01:40:39.452Z,14.21
2022-10-15T01:41:39.479Z,14.20
2022-10-15T01:42:39.508Z,14.24
2022-10-15T01:43:39.553Z,14.23
2022-10-15T01:44:39.684Z,14.21
2022-10-15T01:45:39.591Z,14.26
2022-10-15T01:46:39.619Z,14.27
2022-10-15T01:47:39.646Z,14.23
2022-10-15T01:48:39.674Z,14.20
2022-10-15T01:49:39.711Z,14.20
2022-10-15T01:50:39.731Z,14.23
2022-10-15T01:51:39.759Z,14.19
2022-10-15T01:52:39.787Z,14.13
2022-10-15T01:53:39.813Z,14.23
2022-10-15T01:54:39.860Z,14.23
2022-10-15T01:55:39.867Z,14.24
2022-10-15T01:56:39.894Z,14.13
2022-10-15T01:57:39.921Z,14.24
2022-10-15T01:58:39.954Z,14.28
2022-10-15T01:59:39.978Z,14.21
2022-10-15T02:00:40.066Z,14.23
2022-10-15T02:01:40.070Z,14.21
2022-10-15T02:02:40.063Z,14.15
2022-10-15T02:03:40.088Z,14.19
2022-10-15T02:04:40.117Z,14.19
2022-10-15T02:05:40.142Z,14.23
2022-10-15T02:06:40.172Z,14.19
2022-10-15T02:07:40.198Z,14.16
2022-10-15T02:08:40.227Z,14.12
2022-10-15T02:09:40.255Z,14.24
2022-10-15T02:10:40.382Z,14.21
2022-10-15T02:11:40.311Z,14.06
2022-10-15T02:12:40.338Z,14.05
2022-10-15T02:13:40.364Z,14.16
2022-10-15T02:14:40.395Z,14.12
2022-10-15T02:15:40.420Z,14.19
2022-10-15T02:16:40.449Z,14.16
2022-10-15T02:17:40.475Z,14.16
2022-10-15T02:18:40.505Z,14.21
2022-10-15T02:19:40.529Z,14.13
2022-10-15T02:20:40.559Z,14.16
2022-10-15T02:21:40.584Z,14.16
2022-10-15T02:22:40.614Z,14.13
2022-10-15T02:23:40.642Z,14.15
2022-10-15T02:24:40.669Z,14.15
2022-10-15T02:25:40.694Z,14.15
2022-10-15T02:26:40.743Z,14.16
2022-10-15T02:27:40.751Z,14.19
2022-10-15T02:28:40.820Z,14.23
2022-10-15T02:29:40.806Z,14.19
2022-10-15T02:30:40.839Z,14.03
2022-10-15T02:31:40.863Z,14.15
2022-10-15T02:32:40.891Z,14.20
2022-10-15T02:33:40.915Z,14.16
2022-10-15T02:34:40.945Z,14.13
2022-10-15T02:35:40.972Z,14.16
2022-10-15T02:36:41.000Z,14.12
2022-10-15T02:37:41.027Z,14.05
2022-10-15T02:38:41.055Z,14.08
2022-10-15T02:39:41.083Z,14.13
2022-10-15T02:40:41.111Z,14.05
2022-10-15T02:41:41.137Z,14.09
2022-10-15T02:42:41.185Z,14.03
2022-10-15T02:43:41.193Z,14.02
2022-10-15T02:44:41.219Z,14.03
2022-10-15T02:45:41.248Z,14.08
2022-10-15T02:46:41.275Z,14.03
2022-10-15T02:47:41.305Z,13.97
2022-10-15T02:48:41.329Z,14.05
2022-10-15T02:49:41.356Z,14.08
2022-10-15T02:50:41.385Z,14.09
2022-10-15T02:51:41.414Z,14.02
2022-10-15T02:52:41.442Z,14.12
2022-10-15T02:53:41.467Z,14.06
2022-10-15T02:54:41.498Z,14.09
2022-10-15T02:55:41.522Z,14.05
2022-10-15T02:56:41.552Z,14.16
2022-10-15T02:57:41.579Z,14.16
2022-10-15T02:58:41.626Z,14.13
2022-10-15T02:59:41.633Z,14.16
2022-10-15T03:00:41.724Z,14.19
2022-10-15T03:01:41.687Z,14.21
2022-10-15T03:02:41.716Z,14.19
2022-10-15T03:03:41.744Z,14.20
2022-10-15T03:04:41.772Z,14.15
2022-10-15T03:05:41.800Z,14.11
2022-10-15T03:06:41.828Z,14.24
2022-10-15T03:07:41.857Z,14.13
2022-10-15T03:08:41.883Z,14.13
2022-10-15T03:09:41.909Z,14.16
2022-10-15T03:10:41.938Z,14.16
2022-10-15T03:11:41.965Z,14.24
2022-10-15T03:12:41.993Z,14.26
2022-10-15T03:13:42.018Z,14.15
2022-10-15T03:14:42.067Z,14.27
2022-10-15T03:15:42.075Z,14.20
2022-10-15T03:16:42.105Z,14.19
2022-10-15T03:17:42.130Z,14.19
2022-10-15T03:18:42.162Z,14.20
2022-10-15T03:19:42.186Z,14.20
2022-10-15T03:20:42.214Z,14.20
2022-10-15T03:21:42.246Z,14.20
2022-10-15T03:22:42.270Z,14.21
2022-10-15T03:23:42.300Z,14.20
2022-10-15T03:24:42.326Z,14.23
2022-10-15T03:25:42.353Z,14.23
2022-10-15T03:26:42.386Z,14.26
2022-10-15T03:27:42.407Z,14.23
2022-10-15T03:28:42.461Z,14.19
2022-10-15T03:29:42.461Z,14.24
2022-10-15T03:30:42.514Z,14.20
2022-10-15T03:31:42.518Z,14.24
2022-10-15T03:33:42.572Z,14.27
2022-10-15T03:34:42.602Z,14.21
2022-10-15T03:35:42.628Z,14.19
2022-10-15T03:36:42.656Z,14.20
2022-10-15T03:37:42.689Z,14.21
2022-10-15T03:38:42.712Z,14.23
2022-10-15T03:39:42.740Z,14.23
2022-10-15T03:40:42.768Z,14.19
2022-10-15T03:42:42.825Z,14.19
2022-10-15T03:43:43.221Z,14.20
2022-10-15T03:44:42.880Z,14.23
2022-10-15T03:45:42.904Z,14.27
2022-10-15T03:46:42.952Z,14.16
2022-10-15T03:47:42.960Z,14.16
2022-10-15T03:48:42.991Z,14.15
2022-10-15T03:49:43.013Z,14.23
2022-10-15T03:50:43.045Z,14.24
2022-10-15T03:51:43.071Z,14.19
2022-10-15T03:52:43.099Z,14.21
2022-10-15T03:53:43.127Z,14.19
2022-10-15T03:54:43.155Z,14.26
2022-10-15T03:55:43.181Z,14.27
2022-10-15T03:56:43.209Z,14.20
2022-10-15T03:57:43.339Z,14.20
2022-10-15T03:58:43.268Z,14.21
2022-10-15T04:00:43.364Z,14.33
2022-10-15T04:01:43.351Z,14.28
2022-10-15T04:02:43.395Z,14.21
2022-10-15T04:03:43.404Z,14.30
2022-10-15T04:04:43.431Z,14.27
2022-10-15T04:05:43.458Z,14.26
2022-10-15T04:06:43.487Z,14.31
2022-10-15T04:07:43.514Z,14.31
2022-10-15T04:08:43.591Z,14.28
2022-10-15T04:09:43.567Z,14.28
2022-10-15T04:10:43.599Z,14.31
2022-10-15T04:11:43.624Z,14.31
2022-10-15T04:12:43.653Z,14.33
2022-10-15T04:13:43.683Z,14.38
2022-10-15T04:14:43.708Z,14.41
2022-10-15T04:15:43.736Z,14.36
2022-10-15T04:16:43.764Z,14.34
2022-10-15T04:17:43.850Z,14.44
2022-10-15T04:18:43.835Z,14.39
2022-10-15T04:19:43.846Z,14.45
2022-10-15T04:20:43.871Z,14.41
2022-10-15T04:21:43.902Z,14.46
2022-10-15T04:22:43.928Z,14.44
2022-10-15T04:23:43.957Z,14.45
2022-10-15T04:24:43.983Z,14.45
2022-10-15T04:25:44.012Z,14.44
2022-10-15T04:26:44.038Z,14.52
2022-10-15T04:27:44.068Z,14.44
2022-10-15T04:28:44.173Z,14.49
2022-10-15T04:29:44.124Z,14.49
2022-10-15T04:30:44.150Z,14.44
2022-10-15T04:31:44.181Z,14.44
2022-10-15T04:32:44.207Z,14.52
2022-10-15T04:33:44.234Z,14.45
2022-10-15T04:34:44.280Z,14.45
2022-10-15T04:35:44.290Z,14.48
2022-10-15T04:36:44.317Z,14.46
2022-10-15T04:37:44.350Z,14.46
2022-10-15T04:38:44.372Z,14.48
2022-10-15T04:39:44.427Z,14.49
2022-10-15T04:40:44.431Z,14.45
2022-10-15T04:41:44.456Z,14.48
2022-10-15T04:42:44.483Z,14.51
2022-10-15T04:43:44.514Z,14.52
2022-10-15T04:44:44.538Z,14.57
2022-10-15T04:45:44.569Z,14.52
2022-10-15T04:46:44.597Z,14.59
2022-10-15T04:47:44.625Z,14.56
2022-10-15T04:48:44.651Z,14.46
2022-10-15T04:49:44.689Z,14.51
2022-10-15T04:50:44.723Z,14.42
2022-10-15T04:51:44.736Z,14.41
2022-10-15T04:52:44.761Z,14.52
2022-10-15T04:53:44.791Z,14.48
2022-10-15T04:54:44.818Z,14.51
2022-10-15T04:55:44.847Z,14.44
2022-10-15T04:56:44.873Z,14.42
2022-10-15T04:57:44.900Z,14.45
2022-10-15T04:58:44.930Z,14.52
2022-10-15T04:59:44.958Z,14.48
2022-10-15T05:00:44.983Z,14.52
2022-10-15T05:01:45.104Z,14.44
2022-10-15T05:02:45.039Z,14.45
2022-10-15T05:03:45.440Z,14.56
2022-10-15T05:04:45.095Z,14.52
2022-10-15T05:05:45.124Z,14.64
2022-10-15T05:06:45.170Z,14.60
2022-10-15T05:07:45.180Z,14.60
2022-10-15T05:08:45.207Z,14.60
2022-10-15T05:09:46.431Z,14.64
2022-10-15T05:10:45.264Z,14.63
2022-10-15T05:11:45.295Z,14.64
2022-10-15T05:12:45.321Z,14.63
2022-10-15T05:13:45.348Z,14.61
2022-10-15T05:14:45.373Z,14.59
2022-10-15T05:15:45.410Z,14.59
2022-10-15T05:16:45.429Z,14.66
2022-10-15T05:17:45.459Z,14.60
2022-10-15T05:18:45.487Z,14.61
2022-10-15T05:19:45.514Z,14.60
2022-10-15T05:20:45.541Z,14.69
2022-10-15T05:21:45.587Z,14.63
2022-10-15T05:22:45.615Z,14.59
2022-10-15T05:23:45.635Z,14.63
2022-10-15T05:24:45.650Z,14.64
2022-10-15T05:25:49.165Z,14.64
2022-10-15T05:26:45.709Z,14.63
2022-10-15T05:27:45.736Z,14.61
2022-10-15T05:28:45.803Z,14.66
2022-10-15T05:29:45.791Z,14.66
2022-10-15T05:30:45.819Z,14.59
2022-10-15T05:31:45.854Z,14.61
2022-10-15T05:32:45.875Z,14.61
2022-10-15T05:33:45.903Z,14.63
2022-10-15T05:34:45.930Z,14.61
2022-10-15T05:35:45.960Z,14.57
2022-10-15T05:36:45.985Z,14.59
2022-10-15T05:37:46.014Z,14.63
2022-10-15T05:38:46.061Z,14.60
2022-10-15T05:39:46.072Z,14.59
2022-10-15T05:40:46.097Z,14.63
2022-10-15T05:41:46.126Z,14.59
2022-10-15T05:42:46.192Z,14.57
2022-10-15T05:43:46.186Z,14.61
2022-10-15T05:44:46.210Z,14.66
2022-10-15T05:45:46.237Z,14.61
2022-10-15T05:46:46.263Z,14.56
2022-10-15T05:47:46.294Z,14.63
2022-10-15T05:48:46.320Z,14.64
2022-10-15T05:49:46.352Z,14.69
2022-10-15T05:50:46.374Z,14.60
2022-10-15T05:51:46.468Z,14.66
2022-10-15T05:52:46.431Z,14.70
2022-10-15T05:53:46.501Z,14.67
2022-10-15T05:54:46.504Z,14.75
2022-10-15T05:55:46.515Z,14.71
2022-10-15T05:56:46.542Z,14.70
2022-10-15T05:57:46.571Z,14.75
2022-10-15T05:58:46.624Z,14.67
2022-10-15T05:59:46.626Z,14.69
2022-10-15T06:00:46.652Z,14.79
2022-10-15T06:01:46.766Z,14.75
2022-10-15T06:02:46.875Z,14.71
2022-10-15T06:03:46.741Z,14.74
2022-10-15T06:04:46.766Z,14.74
2022-10-15T06:05:46.792Z,14.66
2022-10-15T06:06:46.818Z,14.70
2022-10-15T06:07:46.848Z,14.69
2022-10-15T06:08:46.891Z,14.61
2022-10-15T06:09:46.904Z,14.71
2022-10-15T06:10:46.949Z,14.75
2022-10-15T06:11:46.963Z,14.70
2022-10-15T06:12:46.985Z,14.67
2022-10-15T06:13:47.016Z,14.64
2022-10-15T06:14:47.050Z,14.69
2022-10-15T06:15:47.071Z,14.75
2022-10-15T06:16:47.096Z,14.69
2022-10-15T06:17:47.125Z,14.71
2022-10-15T06:18:47.152Z,14.67
2022-10-15T06:19:47.181Z,14.71
2022-10-15T06:20:47.206Z,14.69
2022-10-15T06:21:47.237Z,14.74
2022-10-15T06:22:47.265Z,14.71
2022-10-15T06:23:47.295Z,14.70
2022-10-15T06:24:47.319Z,14.74
2022-10-15T06:25:47.346Z,14.60
2022-10-15T06:26:47.398Z,14.59
2022-10-15T06:27:47.403Z,14.57
2022-10-15T06:28:47.502Z,14.56
2022-10-15T06:29:47.458Z,14.59
2022-10-15T06:30:47.484Z,14.45
2022-10-15T06:31:47.512Z,14.48
2022-10-15T06:32:47.538Z,14.44
2022-10-15T06:33:47.571Z,14.48
2022-10-15T06:34:47.593Z,14.41
2022-10-15T06:35:47.622Z,14.41
2022-10-15T06:36:47.648Z,14.33
2022-10-15T06:37:47.677Z,14.31
2022-10-15T06:38:47.704Z,14.41
2022-10-15T06:39:47.733Z,14.34
2022-10-15T06:40:47.760Z,14.27
2022-10-15T06:41:47.788Z,14.27
2022-10-15T06:42:47.841Z,14.27
2022-10-15T06:43:47.899Z,14.28
2022-10-15T06:44:47.867Z,14.31
2022-10-15T06:45:47.898Z,14.38
2022-10-15T06:46:47.924Z,14.46
2022-10-15T06:47:47.958Z,14.41
2022-10-15T06:48:47.979Z,14.45
2022-10-15T06:49:48.008Z,14.51
2022-10-15T06:50:48.035Z,14.59
2022-10-15T06:51:48.065Z,14.66
2022-10-15T06:52:48.150Z,14.67
2022-10-15T06:53:48.121Z,14.71
2022-10-15T06:54:48.145Z,14.70
2022-10-15T06:56:48.215Z,14.82
2022-10-15T06:57:48.228Z,14.79
2022-10-15T06:58:48.275Z,14.93
2022-10-15T06:59:48.283Z,14.87
2022-10-15T07:00:48.312Z,14.97
2022-10-15T07:01:48.339Z,14.94
2022-10-15T07:02:48.369Z,14.95
2022-10-15T07:03:48.395Z,14.95
2022-10-15T07:04:48.423Z,15.02
2022-10-15T07:05:48.451Z,15.01
2022-10-15T07:06:48.480Z,15.02
2022-10-15T07:07:48.507Z,15.13
2022-10-15T07:08:48.535Z,15.04
2022-10-15T07:09:48.562Z,15.13
2022-10-15T07:10:48.598Z,15.16
2022-10-15T07:11:48.619Z,15.20
2022-10-15T07:12:48.647Z,15.25
2022-10-15T07:13:48.675Z,15.25
2022-10-15T07:14:48.725Z,15.25
2022-10-15T07:15:48.730Z,15.33
2022-10-15T07:16:48.759Z,15.30
2022-10-15T07:17:48.786Z,15.26
2022-10-15T07:18:48.816Z,15.30
2022-10-15T07:19:48.840Z,15.26
2022-10-15T07:20:48.871Z,15.34
2022-10-15T07:21:48.897Z,15.30
2022-10-15T07:22:48.927Z,15.38
2022-10-15T07:23:48.953Z,15.31
2022-10-15T07:24:48.985Z,15.35
2022-10-15T07:25:49.009Z,15.44
2022-10-15T07:26:49.040Z,15.40
2022-10-15T07:27:49.066Z,15.47
2022-10-15T07:28:49.167Z,15.40
2022-10-15T07:29:49.121Z,15.51
2022-10-15T07:30:49.171Z,15.53
2022-10-15T07:31:49.180Z,15.47
2022-10-15T07:32:50.285Z,15.55
2022-10-15T07:33:49.235Z,15.55
2022-10-15T07:34:49.264Z,15.53
2022-10-15T07:35:49.291Z,15.45
2022-10-15T07:36:49.319Z,15.59
2022-10-15T07:37:49.348Z,15.60
2022-10-15T07:38:49.377Z,15.59
2022-10-15T07:39:49.402Z,15.58
2022-10-15T07:40:49.430Z,15.56
2022-10-15T07:41:49.459Z,15.65
2022-10-15T07:42:49.489Z,15.60
2022-10-15T07:43:49.516Z,15.59
2022-10-15T07:44:49.544Z,15.71
2022-10-15T07:45:49.572Z,15.75
2022-10-15T07:46:49.619Z,15.89
2022-10-15T07:47:49.637Z,15.95
2022-10-15T07:48:49.657Z,15.99
2022-10-15T07:49:49.683Z,15.99
2022-10-15T07:50:49.723Z,16.13
2022-10-15T07:51:49.741Z,16.18
2022-10-15T07:52:49.771Z,16.32
2022-10-15T07:53:49.799Z,16.39
2022-10-15T07:54:49.825Z,16.52
2022-10-15T07:55:49.864Z,16.59
2022-10-15T07:56:49.883Z,16.51
2022-10-15T07:57:49.913Z,16.51
2022-10-15T07:58:49.941Z,16.49
2022-10-15T07:59:49.970Z,16.47
2022-10-15T08:00:49.998Z,16.55
2022-10-15T08:01:50.751Z,16.52
2022-10-15T08:02:50.074Z,16.51
2022-10-15T08:03:50.084Z,16.51
2022-10-15T08:04:50.114Z,16.54
2022-10-15T08:05:50.139Z,16.57
2022-10-15T08:06:50.170Z,16.62
2022-10-15T08:07:50.196Z,16.69
2022-10-15T08:08:50.228Z,16.76
2022-10-15T08:09:50.254Z,16.67
2022-10-15T08:10:50.284Z,16.80
2022-10-15T08:11:50.312Z,16.77
2022-10-15T08:12:50.341Z,16.76
2022-10-15T08:13:50.368Z,16.70
2022-10-15T08:14:50.402Z,16.84
2022-10-15T08:15:50.439Z,16.73
2022-10-15T08:16:50.460Z,16.69
2022-10-15T08:17:50.492Z,16.72
2022-10-15T08:18:53.595Z,16.85
2022-10-15T08:19:50.542Z,16.84
2022-10-15T08:20:50.575Z,16.91
2022-10-15T08:21:50.602Z,16.94
2022-10-15T08:22:50.629Z,16.88
2022-10-15T08:23:50.659Z,16.84
2022-10-15T08:24:50.686Z,16.87
2022-10-15T08:25:50.714Z,16.94
2022-10-15T08:26:50.745Z,16.91
2022-10-15T08:27:50.772Z,16.95
2022-10-15T08:28:50.977Z,17.07
2022-10-15T08:29:50.831Z,17.09
2022-10-15T08:30:50.860Z,17.13
2022-10-15T08:31:50.887Z,17.17
2022-10-15T08:32:50.917Z,17.15
2022-10-15T08:33:50.947Z,17.15
2022-10-15T08:34:50.993Z,17.25
2022-10-15T08:35:51.005Z,17.35
2022-10-15T08:36:51.033Z,17.38
2022-10-15T08:37:51.063Z,17.24
2022-10-15T08:38:51.090Z,17.22
2022-10-15T08:39:51.122Z,17.24
2022-10-15T08:40:51.154Z,17.15
2022-10-15T08:41:51.181Z,17.22
2022-10-15T08:42:51.208Z,17.25
2022-10-15T08:43:51.238Z,17.30
2022-10-15T08:44:51.263Z,17.22
2022-10-15T08:45:51.296Z,17.24
2022-10-15T08:46:51.323Z,17.30
2022-10-15T08:47:51.357Z,17.24
2022-10-15T08:48:51.381Z,17.40
2022-10-15T08:49:51.415Z,17.25
2022-10-15T08:50:53.969Z,17.35
2022-10-15T08:51:51.470Z,17.39
2022-10-15T08:52:51.496Z,17.57
2022-10-15T08:53:51.529Z,17.62
2022-10-15T08:54:51.555Z,17.66
2022-10-15T08:55:51.588Z,17.77
2022-10-15T08:56:51.613Z,17.88
2022-10-15T08:57:51.644Z,17.98
2022-10-15T08:58:51.674Z,18.05
2022-10-15T08:59:51.703Z,17.98
2022-10-15T09:00:51.733Z,17.96
2022-10-15T09:01:51.764Z,18.05
2022-10-15T09:02:51.930Z,18.06
2022-10-15T09:03:51.821Z,18.10
2022-10-15T09:04:51.849Z,18.03
2022-10-15T09:05:51.882Z,18.13
2022-10-15T09:06:51.955Z,18.14
2022-10-15T09:07:54.363Z,18.23
2022-10-15T09:08:51.965Z,18.29
2022-10-15T09:09:52.008Z,18.42
2022-10-15T09:10:52.025Z,18.56
2022-10-15T09:11:52.061Z,18.51
2022-10-15T09:12:52.086Z,18.50
2022-10-15T09:13:52.119Z,18.53
2022-10-15T09:14:53.802Z,18.57
2022-10-15T09:15:52.175Z,18.53
2022-10-15T09:16:52.310Z,18.39
2022-10-15T09:17:52.233Z,18.23
2022-10-15T09:18:52.265Z,18.20
2022-10-15T09:19:52.293Z,18.10
2022-10-15T09:20:52.320Z,17.94
2022-10-15T09:21:52.360Z,18.02
2022-10-15T09:22:52.401Z,18.05
2022-10-15T09:23:52.412Z,17.99
2022-10-15T09:24:52.440Z,18.02
2022-10-15T09:25:52.470Z,17.98
2022-10-15T09:26:52.498Z,17.95
2022-10-15T09:27:52.529Z,17.88
2022-10-15T09:28:52.661Z,18.03
2022-10-15T09:29:52.590Z,18.03
2022-10-15T09:30:52.617Z,18.01
2022-10-15T09:31:52.725Z,18.03
2022-10-15T09:32:54.380Z,18.10
2022-10-15T09:33:52.709Z,18.05
2022-10-15T09:34:52.736Z,18.05
2022-10-15T09:35:52.777Z,17.98
2022-10-15T09:36:52.892Z,18.02
2022-10-15T09:37:52.923Z,17.98
2022-10-15T09:38:52.869Z,18.03
2022-10-15T09:39:52.935Z,18.01
2022-10-15T09:40:52.945Z,18.06
2022-10-15T09:41:52.942Z,18.21
2022-10-15T09:42:52.970Z,18.17
2022-10-15T09:43:53.002Z,18.17
2022-10-15T09:44:53.030Z,18.16
2022-10-15T09:45:53.061Z,18.24
2022-10-15T09:46:53.090Z,18.19
2022-10-15T09:47:53.129Z,18.16
2022-10-15T09:48:53.149Z,18.14
2022-10-15T09:49:53.178Z,18.13
2022-10-15T09:50:53.209Z,18.13
2022-10-15T09:51:53.240Z,18.03
2022-10-15T09:52:53.265Z,18.11
2022-10-15T09:53:53.296Z,18.20
2022-10-15T09:54:53.342Z,18.17
2022-10-15T09:55:53.357Z,18.20
2022-10-15T09:56:53.383Z,18.21
2022-10-15T09:57:53.414Z,18.16
2022-10-15T09:58:53.443Z,18.21
2022-10-15T09:59:53.478Z,18.20
2022-10-15T10:00:53.504Z,18.23
2022-10-15T10:01:53.568Z,18.26
2022-10-15T10:02:53.563Z,18.32
2022-10-15T10:03:53.594Z,18.35
2022-10-15T10:04:53.623Z,18.44
2022-10-15T10:05:53.651Z,18.49
2022-10-15T10:06:53.679Z,18.53
2022-10-15T10:07:53.712Z,18.51
2022-10-15T10:08:53.739Z,18.59
2022-10-15T10:09:53.770Z,18.56
2022-10-15T10:10:53.817Z,18.63
2022-10-15T10:11:53.830Z,18.51
2022-10-15T10:12:53.857Z,18.61
2022-10-15T10:13:53.889Z,18.60
2022-10-15T10:14:53.920Z,18.60
2022-10-15T10:15:58.258Z,18.54
2022-10-15T10:16:53.975Z,18.56
2022-10-15T10:17:54.075Z,18.51
2022-10-15T10:18:54.046Z,18.61
2022-10-15T10:19:54.068Z,18.69
2022-10-15T10:20:54.096Z,18.69
2022-10-15T10:21:54.126Z,18.71
2022-10-15T10:22:54.154Z,18.89
2022-10-15T10:23:54.186Z,19.06
2022-10-15T10:24:54.215Z,19.20
2022-10-15T10:25:54.245Z,19.32
2022-10-15T10:26:54.368Z,19.28
2022-10-15T10:27:54.310Z,19.38
2022-10-15T10:28:57.122Z,19.57
2022-10-15T10:29:54.421Z,19.50
2022-10-15T10:30:54.396Z,19.65
2022-10-15T10:31:54.425Z,19.64
2022-10-15T10:32:54.454Z,19.83
2022-10-15T10:33:54.484Z,19.98
2022-10-15T10:34:54.513Z,19.93
2022-10-15T10:35:54.551Z,20.02
2022-10-15T10:36:54.894Z,20.02
2022-10-15T10:38:54.848Z,20.22
2022-10-15T10:39:57.486Z,20.12
2022-10-15T10:40:54.691Z,20.02
2022-10-15T10:41:54.720Z,20.05
2022-10-15T10:42:56.488Z,19.86
2022-10-15T10:43:54.780Z,19.89
2022-10-15T10:44:54.810Z,19.93
2022-10-15T10:45:54.841Z,19.93
2022-10-15T10:46:54.872Z,19.85
2022-10-15T10:47:54.901Z,19.92
2022-10-15T10:48:54.932Z,19.95
2022-10-15T10:49:54.960Z,19.92
2022-10-15T10:50:54.992Z,19.95
2022-10-15T10:51:55.022Z,20.00
2022-10-15T10:52:55.053Z,20.11
2022-10-15T10:53:55.082Z,20.01
2022-10-15T10:54:55.114Z,20.02
2022-10-15T10:55:55.143Z,19.98
2022-10-15T10:56:55.175Z,19.97
2022-10-15T10:57:55.205Z,19.92
2022-10-15T10:58:55.252Z,19.89
2022-10-15T10:59:55.266Z,20.08
2022-10-15T11:00:55.363Z,20.07
2022-10-15T11:01:55.325Z,19.90
2022-10-15T11:02:55.357Z,19.92
2022-10-15T11:03:55.438Z,20.10
2022-10-15T11:04:55.417Z,20.01
2022-10-15T11:05:55.445Z,20.01
2022-10-15T11:06:55.479Z,20.02
2022-10-15T11:07:55.508Z,20.08
2022-10-15T11:08:55.538Z,20.02
2022-10-15T11:09:56.451Z,19.92
2022-10-15T11:10:55.601Z,19.92
2022-10-15T11:11:55.633Z,19.85
2022-10-15T11:12:55.661Z,19.93
2022-10-15T11:13:55.689Z,19.98
2022-10-15T11:14:55.742Z,19.92
2022-10-15T11:15:55.750Z,19.92
2022-10-15T11:16:55.782Z,19.92
2022-10-15T11:17:55.811Z,19.92
2022-10-15T11:18:55.845Z,20.02
2022-10-15T11:20:59.726Z,20.00
2022-10-15T11:21:55.933Z,20.04
2022-10-15T11:22:55.965Z,20.08
2022-10-15T11:23:55.994Z,20.18
2022-10-15T11:25:06.750Z,20.08
2022-10-15T11:25:56.054Z,20.18
2022-10-15T11:27:09.772Z,20.16
2022-10-15T11:27:56.117Z,20.16
2022-10-15T11:28:56.209Z,20.20
2022-10-15T11:29:56.176Z,20.29
2022-10-15T11:30:56.225Z,20.22
2022-10-15T11:32:02.950Z,20.30
2022-10-15T11:33:09.576Z,20.27
2022-10-15T11:33:56.296Z,20.25
2022-10-15T11:34:56.330Z,20.29
2022-10-15T11:35:56.358Z,20.32
2022-10-15T11:36:56.389Z,20.34
2022-10-15T11:37:56.418Z,20.37
2022-10-15T11:38:56.446Z,20.46
2022-10-15T11:40:56.503Z,20.58
2022-10-15T11:41:56.536Z,20.67
2022-10-15T11:42:56.568Z,20.72
2022-10-15T11:43:56.596Z,20.71
2022-10-15T11:44:56.625Z,20.74
2022-10-15T11:45:56.660Z,20.76
2022-10-15T11:46:56.705Z,20.81
2022-10-15T11:47:56.720Z,20.81
2022-10-15T11:48:56.747Z,20.86
2022-10-15T11:49:56.781Z,21.06
2022-10-15T11:50:56.808Z,20.97
2022-10-15T11:51:56.840Z,20.98
2022-10-15T11:52:56.868Z,20.98
2022-10-15T11:53:57.506Z,21.00
2022-10-15T11:54:56.927Z,20.90
2022-10-15T12:02:58.111Z,20.64
2022-10-15T12:04:39.767Z,20.74
2022-10-15T12:05:40.998Z,20.66
2022-10-15T12:06:39.814Z,20.66
2022-10-15T12:07:39.859Z,20.82
2022-10-15T12:08:39.874Z,20.74
2022-10-15T12:09:39.917Z,20.71
2022-10-15T12:10:39.935Z,20.68
2022-10-15T12:11:39.977Z,20.76
2022-10-15T12:12:39.997Z,20.85
2022-10-15T12:13:40.024Z,20.76
2022-10-15T12:14:40.066Z,20.74
2022-10-15T12:15:40.082Z,20.78
2022-10-15T12:16:40.111Z,20.72
2022-10-15T12:17:40.144Z,20.64
2022-10-15T12:18:40.394Z,20.68
2022-10-15T12:19:40.219Z,20.71
2022-10-15T12:20:40.246Z,20.71
2022-10-15T12:21:40.281Z,20.64
2022-10-15T12:23:40.327Z,20.82
2022-10-15T12:24:40.355Z,20.79
2022-10-15T12:25:40.383Z,20.91
2022-10-15T12:26:40.414Z,21.04
2022-10-15T12:27:40.444Z,21.04
2022-10-15T12:28:40.510Z,21.16
2022-10-15T12:30:41.245Z,21.38
2022-10-15T12:31:40.909Z,21.48
2022-10-15T12:32:40.595Z,21.53
2022-10-15T12:33:40.627Z,21.64
2022-10-15T12:34:40.680Z,21.66
2022-10-15T12:35:40.686Z,21.76
2022-10-15T12:36:40.718Z,21.77
2022-10-15T12:37:40.750Z,21.82
2022-10-15T12:38:40.793Z,21.67
2022-10-15T12:39:51.756Z,21.66
2022-10-15T12:41:41.395Z,21.64
2022-10-15T12:42:44.330Z,21.64
2022-10-15T12:43:43.553Z,21.59
2022-10-15T12:44:40.970Z,21.49
2022-10-15T12:45:41.726Z,21.38
2022-10-15T12:49:41.127Z,21.25
2022-10-15T12:52:41.222Z,21.48
2022-10-15T12:53:41.847Z,21.62
2022-10-15T12:55:41.318Z,21.74
2022-10-15T13:05:41.607Z,21.85
2022-10-15T13:06:41.637Z,21.83
2022-10-15T13:07:41.670Z,21.82
2022-10-15T13:08:41.717Z,21.83
2022-10-15T13:09:44.956Z,21.77
2022-10-15T13:11:49.370Z,21.96
2022-10-15T13:12:49.397Z,21.94
2022-10-15T13:13:49.426Z,21.92
2022-10-15T13:14:49.458Z,21.97
2022-10-15T13:15:50.229Z,22.07
2022-10-15T13:16:49.520Z,22.11
2022-10-15T13:17:49.555Z,22.09
2022-10-15T13:18:49.582Z,22.18
2022-10-15T13:19:49.611Z,22.18
2022-10-15T13:20:49.691Z,22.16
2022-10-15T13:21:49.674Z,22.27
2022-10-15T13:22:51.015Z,22.26
2022-10-15T13:24:50.212Z,22.26
2022-10-15T13:25:53.430Z,22.16
2022-10-15T13:27:50.278Z,22.15
2022-10-15T13:34:50.092Z,22.12